Time;durP1;ratioP1;P1;durP2;ratioP2;P2;SDS_P1;SDS_P2;PMS_P1;PMS_P2;Temp;Humidity;BMP_temperature;BMP_pressure;BME280_temperature;BME280_humidity;BME280_pressure;Samples;Min_cycle;Max_cycle;Signal;HPM_P1;HPM_P2
2022/12/06 00:00:18;;;;;;;4.20;1.95;;;5.10;99.90;;;;;;4214777;28;20040;-85
2022/12/06 00:02:19;;;;;;;7.53;1.48;;;5.10;99.90;;;;;;4214605;28;20051;-86
2022/12/06 00:04:20;;;;;;;5.60;1.35;;;5.10;99.90;;;;;;4219990;28;20046;-85
2022/12/06 00:06:24;;;;;;;5.70;1.90;;;4.00;99.90;;;;;;4231610;28;20122;-86
2022/12/06 00:08:25;;;;;;;7.25;2.08;;;5.10;99.90;;;;;;4213444;28;20048;-84
2022/12/06 00:10:25;;;;;;;6.63;2.55;;;5.10;99.90;;;;;;4230913;28;20108;-84
2022/12/06 00:12:26;;;;;;;5.93;1.52;;;5.10;99.90;;;;;;4229177;28;20055;-84
2022/12/06 00:14:27;;;;;;;7.13;1.88;;;5.10;99.90;;;;;;4230979;28;20057;-84
2022/12/06 00:16:29;;;;;;;9.30;2.30;;;5.10;99.90;;;;;;4213431;28;20048;-85
2022/12/06 00:18:33;;;;;;;4.50;1.70;;;5.10;99.90;;;;;;4231198;28;20126;-84
2022/12/06 00:20:34;;;;;;;5.82;2.20;;;5.10;99.90;;;;;;4229880;28;20523;-84
2022/12/06 00:22:36;;;;;;;9.90;1.90;;;5.10;99.90;;;;;;4226678;28;20090;-84
2022/12/06 00:24:37;;;;;;;5.13;1.67;;;5.20;99.90;;;;;;4230996;28;20114;-84
2022/12/06 00:26:40;;;;;;;6.70;1.48;;;5.10;99.90;;;;;;4229200;28;20549;-84
2022/12/06 00:28:41;;;;;;;8.18;1.40;;;5.10;99.90;;;;;;4230983;28;20047;-85
2022/12/06 00:30:42;;;;;;;4.15;1.20;;;5.20;99.90;;;;;;4231218;28;20039;-85
2022/12/06 00:32:43;;;;;;;2.75;1.00;;;5.20;99.90;;;;;;4231199;28;20488;-85
2022/12/06 00:34:44;;;;;;;3.50;1.00;;;5.10;99.90;;;;;;4229214;28;20048;-84
2022/12/06 00:36:45;;;;;;;3.33;1.13;;;5.20;99.90;;;;;;4231969;28;20048;-85
2022/12/06 00:38:46;;;;;;;5.80;1.40;;;5.10;99.90;;;;;;4209978;28;20044;-85
2022/12/06 00:40:47;;;;;;;4.63;0.93;;;5.20;99.90;;;;;;4217108;28;20523;-85
2022/12/06 00:42:48;;;;;;;2.17;0.80;;;5.10;99.90;;;;;;4216049;28;20039;-85
2022/12/06 00:44:49;;;;;;;9.27;0.98;;;5.20;99.90;;;;;;4216059;28;20044;-85
2022/12/06 00:46:49;;;;;;;2.30;0.85;;;5.10;99.90;;;;;;4216834;28;20055;-86
2022/12/06 00:48:53;;;;;;;4.75;1.00;;;5.10;99.90;;;;;;4215728;28;20052;-85
2022/12/06 00:50:54;;;;;;;2.90;0.90;;;5.20;99.90;;;;;;4215962;28;20416;-84
2022/12/06 00:52:55;;;;;;;6.05;1.38;;;5.10;99.90;;;;;;4216706;28;20089;-84
2022/12/06 00:54:56;;;;;;;2.38;0.90;;;5.20;99.90;;;;;;4215411;28;20063;-84
2022/12/06 00:56:56;;;;;;;6.13;0.60;;;5.10;99.90;;;;;;4216418;28;20048;-84
2022/12/06 00:58:57;;;;;;;3.33;0.80;;;5.10;99.90;;;;;;4220842;28;20561;-84
2022/12/06 01:01:10;;;;;;;1.55;0.85;;;5.10;99.90;;;;;;4217301;28;20048;-86
2022/12/06 01:03:11;;;;;;;2.58;0.70;;;4.90;99.90;;;;;;4198596;28;20105;-84
2022/12/06 01:05:11;;;;;;;1.92;0.60;;;5.00;99.90;;;;;;4217074;28;20068;-85
2022/12/06 01:07:12;;;;;;;2.78;0.60;;;5.00;99.90;;;;;;4216274;28;20090;-85
2022/12/06 01:09:13;;;;;;;3.50;0.70;;;5.10;99.90;;;;;;4215634;28;20044;-85
2022/12/06 01:11:15;;;;;;;2.22;0.50;;;5.10;99.90;;;;;;4198308;28;20475;-85
2022/12/06 01:13:17;;;;;;;6.45;0.60;;;5.00;99.90;;;;;;4217081;28;20126;-85
2022/12/06 01:15:17;;;;;;;1.67;0.40;;;5.00;99.90;;;;;;4221824;28;20040;-85
2022/12/06 01:17:18;;;;;;;1.50;0.50;;;5.00;99.90;;;;;;4216541;28;20055;-84
2022/12/06 01:19:19;;;;;;;1.33;0.63;;;5.10;99.90;;;;;;4215073;28;20130;-84
2022/12/06 01:21:22;;;;;;;0.82;0.73;;;5.10;99.90;;;;;;4216074;28;20178;-85
2022/12/06 01:23:23;;;;;;;1.20;0.40;;;5.00;99.90;;;;;;4215152;28;20468;-85
2022/12/06 01:25:24;;;;;;;4.50;0.95;;;5.00;99.90;;;;;;4215364;28;20130;-84
2022/12/06 01:27:25;;;;;;;6.13;0.90;;;5.00;99.90;;;;;;4216064;28;20048;-84
2022/12/06 01:29:26;;;;;;;0.50;0.40;;;5.00;99.90;;;;;;4215867;28;20123;-85
2022/12/06 01:31:27;;;;;;;3.60;1.15;;;5.00;99.90;;;;;;4216176;28;20040;-85
2022/12/06 01:33:28;;;;;;;1.30;0.63;;;5.50;99.90;;;;;;4219868;28;20048;-84
2022/12/06 01:35:30;;;;;;;1.80;0.45;;;5.00;99.90;;;;;;4198909;28;20048;-85
2022/12/06 01:37:31;;;;;;;1.75;0.55;;;4.90;99.90;;;;;;4217087;28;20043;-85
2022/12/06 01:39:33;;;;;;;4.30;0.57;;;5.00;99.90;;;;;;4198063;28;20044;-85
2022/12/06 01:41:36;;;;;;;2.45;0.77;;;5.00;99.90;;;;;;4215187;28;20044;-84
2022/12/06 01:43:42;;;;;;;2.67;1.10;;;5.00;99.90;;;;;;4216805;28;20044;-86
2022/12/06 01:45:43;;;;;;;2.13;0.60;;;5.00;99.90;;;;;;4215841;28;20051;-85
2022/12/06 01:47:44;;;;;;;4.60;0.70;;;5.00;99.90;;;;;;4217926;28;20534;-84
2022/12/06 01:49:53;;;;;;;3.30;0.70;;;5.00;99.90;;;;;;4217042;28;20044;-83
2022/12/06 01:52:01;;;;;;;2.38;0.70;;;5.00;99.90;;;;;;4216698;28;20109;-84
2022/12/06 01:54:07;;;;;;;2.22;0.82;;;5.00;99.90;;;;;;4218488;28;20056;-85
2022/12/06 01:56:08;;;;;;;2.80;1.05;;;5.00;99.90;;;;;;4216072;28;20378;-85
2022/12/06 01:58:17;;;;;;;2.90;0.40;;;4.60;99.90;;;;;;4216410;28;20040;-84
2022/12/06 02:00:18;;;;;;;1.42;0.50;;;5.00;99.90;;;;;;4215668;28;20075;-84
2022/12/06 02:02:19;;;;;;;2.42;0.60;;;5.00;99.90;;;;;;4215334;28;20520;-84
2022/12/06 02:04:21;;;;;;;2.67;0.60;;;5.40;99.90;;;;;;4214393;28;20059;-84
2022/12/06 02:06:22;;;;;;;1.23;0.60;;;5.00;99.90;;;;;;4215906;28;20059;-84
2022/12/06 02:08:23;;;;;;;2.70;1.08;;;5.00;99.90;;;;;;4214173;28;20087;-84
2022/12/06 02:10:24;;;;;;;0.75;0.50;;;4.90;99.90;;;;;;4220360;28;20044;-83
2022/12/06 02:12:25;;;;;;;2.80;0.70;;;5.00;99.90;;;;;;4197460;28;20586;-84
2022/12/06 02:14:32;;;;;;;2.40;0.65;;;5.00;99.90;;;;;;4214112;28;20056;-84
2022/12/06 02:16:59;;;;;;;3.38;0.70;;;5.00;99.90;;;;;;4216110;28;20074;-83
2022/12/06 02:19:19;;;;;;;1.10;0.75;;;4.90;99.90;;;;;;4231158;28;20062;-84
2022/12/06 02:21:22;;;;;;;2.45;0.88;;;4.90;99.90;;;;;;4231406;28;20079;-83
2022/12/06 02:23:55;;;;;;;2.97;0.70;;;4.90;99.90;;;;;;4230959;28;20075;-83
2022/12/06 02:26:16;;;;;;;2.75;1.08;;;4.90;99.90;;;;;;4225890;28;20051;-83
2022/12/06 02:28:54;;;;;;;4.55;0.77;;;4.90;99.90;;;;;;4215014;28;20044;-84
2022/12/06 02:31:06;;;;;;;3.78;0.80;;;4.90;99.90;;;;;;4197677;28;20052;-84
2022/12/06 02:33:16;;;;;;;1.05;0.57;;;4.80;99.90;;;;;;4196725;28;20037;-84
2022/12/06 02:35:30;;;;;;;1.75;0.85;;;4.80;99.90;;;;;;4201620;28;20148;-84
2022/12/06 02:37:43;;;;;;;1.88;0.80;;;4.80;99.90;;;;;;4197481;28;20053;-84
2022/12/06 02:40:14;;;;;;;2.58;0.70;;;4.80;99.90;;;;;;4213664;28;20090;-84
2022/12/06 02:42:31;;;;;;;2.78;1.38;;;4.80;99.90;;;;;;4210415;28;20051;-84
2022/12/06 02:44:55;;;;;;;1.58;0.70;;;4.80;99.90;;;;;;4214823;28;20057;-84
2022/12/06 02:46:57;;;;;;;2.35;0.90;;;4.80;99.90;;;;;;4214392;28;20119;-85
2022/12/06 02:49:02;;;;;;;3.42;0.77;;;4.80;99.90;;;;;;4214444;28;20108;-83
2022/12/06 02:51:09;;;;;;;4.70;0.77;;;4.70;99.90;;;;;;4215674;28;20112;-84
2022/12/06 02:53:14;;;;;;;2.83;0.75;;;4.80;99.90;;;;;;4205104;28;20118;-84
2022/12/06 02:55:18;;;;;;;1.40;0.75;;;4.70;99.90;;;;;;4230804;28;20052;-84
2022/12/06 02:57:31;;;;;;;2.65;0.95;;;4.70;99.90;;;;;;4232333;28;20090;-84
2022/12/06 02:59:32;;;;;;;2.13;0.90;;;4.70;99.90;;;;;;4230766;28;20108;-84
2022/12/06 03:01:40;;;;;;;1.45;0.70;;;4.70;99.90;;;;;;4213156;28;20056;-84
2022/12/06 03:03:56;;;;;;;2.05;1.35;;;4.80;99.90;;;;;;4230075;28;20149;-84
2022/12/06 03:06:02;;;;;;;4.03;1.30;;;4.70;99.90;;;;;;4231391;28;20051;-84
2022/12/06 03:08:11;;;;;;;5.50;1.33;;;4.70;99.90;;;;;;4229590;28;20078;-84
2022/12/06 03:10:26;;;;;;;3.30;0.90;;;4.70;99.90;;;;;;4206058;28;20044;-85
2022/12/06 03:12:46;;;;;;;3.75;1.20;;;4.60;99.90;;;;;;4213165;28;20056;-84
2022/12/06 03:14:57;;;;;;;1.67;0.85;;;4.60;99.90;;;;;;4196777;28;20151;-84
2022/12/06 03:17:13;;;;;;;2.50;0.85;;;4.60;99.90;;;;;;4196619;28;20052;-85
2022/12/06 03:19:23;;;;;;;4.32;0.95;;;4.60;99.90;;;;;;4213501;28;20052;-84
2022/12/06 03:21:33;;;;;;;2.15;0.90;;;4.60;99.90;;;;;;4213018;28;20135;-84
2022/12/06 03:23:40;;;;;;;2.35;0.70;;;4.60;99.90;;;;;;4214415;28;20055;-84
2022/12/06 03:25:44;;;;;;;2.65;0.90;;;5.30;99.90;;;;;;4219758;28;20564;-85
2022/12/06 03:27:47;;;;;;;2.10;0.80;;;4.70;99.90;;;;;;4233121;28;20047;-84
2022/12/06 03:29:55;;;;;;;1.52;0.70;;;4.60;99.90;;;;;;4230455;28;20063;-84
2022/12/06 03:32:01;;;;;;;2.03;0.77;;;4.60;99.90;;;;;;4229616;28;20074;-85
2022/12/06 03:34:10;;;;;;;2.08;0.57;;;4.60;99.90;;;;;;4229739;28;20413;-85
2022/12/06 03:36:13;;;;;;;1.50;0.70;;;4.80;99.90;;;;;;4231405;28;20476;-84
2022/12/06 03:38:24;;;;;;;1.45;0.50;;;5.20;99.90;;;;;;4231498;28;20044;-83
2022/12/06 03:40:31;;;;;;;1.45;0.70;;;5.30;99.90;;;;;;4231403;28;20040;-85
2022/12/06 03:42:34;;;;;;;3.25;0.60;;;4.60;99.90;;;;;;4213027;28;20101;-86
2022/12/06 03:44:36;;;;;;;4.50;0.65;;;4.60;99.90;;;;;;4212821;28;20461;-85
2022/12/06 03:46:43;;;;;;;2.15;1.08;;;4.60;99.90;;;;;;4246393;28;20079;-84
2022/12/06 03:49:16;;;;;;;2.25;0.70;;;4.60;99.90;;;;;;4248940;28;20044;-85
2022/12/06 03:51:27;;;;;;;0.55;0.45;;;4.80;99.90;;;;;;4239590;28;20062;-85
2022/12/06 03:53:27;;;;;;;0.85;0.40;;;4.60;99.90;;;;;;4244797;28;20040;-85
2022/12/06 03:55:29;;;;;;;0.88;0.57;;;4.60;99.90;;;;;;4242916;28;20439;-85
2022/12/06 03:57:30;;;;;;;0.55;0.38;;;4.60;99.90;;;;;;4222832;28;20052;-85
2022/12/06 03:59:31;;;;;;;1.17;0.60;;;4.60;99.90;;;;;;4240327;28;20047;-85
2022/12/06 04:01:32;;;;;;;1.00;0.40;;;5.20;99.90;;;;;;4234443;28;20468;-85
2022/12/06 04:03:36;;;;;;;0.30;0.30;;;4.60;99.90;;;;;;4229104;28;20047;-85
2022/12/06 04:05:39;;;;;;;2.65;0.38;;;4.60;99.90;;;;;;4217608;28;20133;-85
2022/12/06 04:07:39;;;;;;;0.90;0.52;;;4.60;99.90;;;;;;4212908;28;20075;-86
2022/12/06 04:09:55;;;;;;;0.77;0.40;;;4.60;99.90;;;;;;4214316;28;20063;-84
2022/12/06 04:11:55;;;;;;;0.95;0.85;;;4.60;99.90;;;;;;4215317;28;20052;-84
2022/12/06 04:13:56;;;;;;;0.68;0.40;;;4.90;99.90;;;;;;4216597;28;20044;-85
2022/12/06 04:15:59;;;;;;;2.85;0.57;;;4.60;99.90;;;;;;4217541;28;20140;-84
2022/12/06 04:18:17;;;;;;;0.40;0.30;;;4.60;99.90;;;;;;4200623;28;20524;-85
2022/12/06 04:20:18;;;;;;;0.47;0.30;;;4.60;99.90;;;;;;4220539;28;20131;-84
2022/12/06 04:24:41;;;;;;;2.83;0.60;;;4.60;99.90;;;;;;4221624;28;20043;-84
2022/12/06 04:26:41;;;;;;;0.93;0.45;;;4.60;99.90;;;;;;4219746;28;20047;-84
2022/12/06 04:40:19;;;;;;;1.35;0.40;;;4.20;99.90;;;;;;4223641;28;20095;-85
2022/12/06 04:44:39;;;;;;;1.75;0.60;;;4.30;99.90;;;;;;4216372;28;20052;-85
2022/12/06 04:46:41;;;;;;;0.90;0.60;;;4.10;99.90;;;;;;4216797;28;20079;-85
2022/12/06 04:48:43;;;;;;;0.88;0.50;;;4.00;99.90;;;;;;4216908;28;20040;-85
2022/12/06 04:50:50;;;;;;;0.88;0.40;;;4.00;99.90;;;;;;4216508;28;20063;-85
2022/12/06 04:52:50;;;;;;;1.70;0.50;;;3.90;99.90;;;;;;4215504;28;20538;-85
2022/12/06 04:54:51;;;;;;;1.63;0.65;;;3.80;99.90;;;;;;4216403;28;20036;-84
2022/12/06 04:56:52;;;;;;;0.88;0.60;;;4.00;99.90;;;;;;4223435;28;20568;-84
2022/12/06 04:58:53;;;;;;;5.38;0.60;;;3.70;99.90;;;;;;4232288;28;20048;-84
2022/12/06 05:00:54;;;;;;;1.85;0.30;;;3.70;99.90;;;;;;4232392;28;20511;-84
2022/12/06 05:02:54;;;;;;;2.05;0.60;;;3.70;99.90;;;;;;4232614;28;20132;-84
2022/12/06 05:04:55;;;;;;;0.95;0.60;;;3.60;99.90;;;;;;4232123;28;20055;-84
2022/12/06 05:06:57;;;;;;;2.22;0.50;;;3.60;99.90;;;;;;4233552;28;20040;-84
2022/12/06 05:08:59;;;;;;;1.27;0.55;;;3.90;99.90;;;;;;4215544;28;20054;-84
2022/12/06 05:11:00;;;;;;;1.05;0.50;;;3.50;99.90;;;;;;4233287;28;20148;-84
2022/12/06 05:13:02;;;;;;;2.10;0.73;;;4.30;99.90;;;;;;4232890;28;20125;-84
2022/12/06 05:15:03;;;;;;;2.88;0.90;;;3.40;99.90;;;;;;4208038;28;20404;-85
2022/12/06 05:17:03;;;;;;;1.85;0.80;;;3.40;99.90;;;;;;4218017;28;20128;-84
2022/12/06 05:19:05;;;;;;;1.40;0.68;;;3.40;99.90;;;;;;4215426;28;20055;-85
2022/12/06 05:21:09;;;;;;;1.17;0.60;;;3.40;99.90;;;;;;4215010;28;20392;-85
2022/12/06 05:23:10;;;;;;;2.35;0.60;;;3.30;99.90;;;;;;4215491;28;20078;-85
2022/12/06 05:25:11;;;;;;;2.65;0.70;;;3.30;99.90;;;;;;4198840;28;20044;-85
2022/12/06 05:27:13;;;;;;;3.08;0.80;;;3.50;99.90;;;;;;4215900;28;20052;-85
2022/12/06 05:29:15;;;;;;;2.10;0.60;;;3.30;99.90;;;;;;4214998;28;20043;-85
2022/12/06 05:31:18;;;;;;;4.20;0.70;;;3.30;99.90;;;;;;4216373;28;20046;-84
2022/12/06 05:33:19;;;;;;;2.97;0.70;;;3.30;99.90;;;;;;4217140;28;20094;-84
2022/12/06 05:35:19;;;;;;;3.13;1.13;;;3.30;99.90;;;;;;4217761;28;20047;-85
2022/12/06 05:37:20;;;;;;;2.88;0.93;;;4.00;99.90;;;;;;4217821;28;20055;-85
2022/12/06 05:39:22;;;;;;;2.65;0.70;;;3.40;99.90;;;;;;4216942;28;20040;-91
2022/12/06 05:41:25;;;;;;;3.30;1.00;;;3.20;99.90;;;;;;4198614;28;20045;-85
2022/12/06 05:43:25;;;;;;;4.93;1.58;;;3.20;99.90;;;;;;4197884;28;20045;-85
2022/12/06 05:45:27;;;;;;;2.30;0.90;;;3.20;99.90;;;;;;4216424;28;20556;-85
2022/12/06 05:47:29;;;;;;;2.03;1.23;;;3.20;99.90;;;;;;4215192;28;20512;-84
2022/12/06 05:49:29;;;;;;;2.63;0.80;;;3.20;99.90;;;;;;4219135;28;20044;-85
2022/12/06 05:51:31;;;;;;;2.13;1.08;;;3.20;99.90;;;;;;4221360;28;20102;-85
2022/12/06 05:53:33;;;;;;;6.25;1.02;;;3.20;99.90;;;;;;4198228;28;20115;-85
2022/12/06 05:55:34;;;;;;;2.20;1.00;;;3.30;99.90;;;;;;4216208;28;20086;-86
2022/12/06 05:57:35;;;;;;;5.85;1.23;;;3.10;99.90;;;;;;4216606;28;20408;-85
2022/12/06 05:59:37;;;;;;;4.00;1.20;;;3.00;99.90;;;;;;4216321;28;20499;-86
2022/12/06 06:01:38;;;;;;;3.85;1.25;;;3.40;99.90;;;;;;4216502;28;20048;-85
2022/12/06 06:03:39;;;;;;;6.07;1.10;;;3.10;99.90;;;;;;4198806;28;20544;-85
2022/12/06 06:05:50;;;;;;;3.67;0.98;;;3.00;99.90;;;;;;4198757;28;20053;-86
2022/12/06 06:07:52;;;;;;;1.88;0.88;;;3.40;99.90;;;;;;4198874;28;20121;-86
2022/12/06 06:09:54;;;;;;;2.38;1.35;;;3.10;99.90;;;;;;4216080;28;20055;-85
2022/12/06 06:11:55;;;;;;;2.50;1.13;;;3.70;99.90;;;;;;4216299;28;20056;-86
2022/12/06 06:13:55;;;;;;;2.45;1.50;;;3.10;99.90;;;;;;4217200;28;20514;-86
2022/12/06 06:15:57;;;;;;;2.28;0.98;;;3.10;99.90;;;;;;4218809;28;20465;-86
2022/12/06 06:17:58;;;;;;;4.35;1.20;;;3.80;99.90;;;;;;4233801;28;20044;-86
2022/12/06 06:20:01;;;;;;;3.33;1.15;;;3.30;99.90;;;;;;4230798;28;20054;-85
2022/12/06 06:22:02;;;;;;;5.05;1.10;;;3.40;99.90;;;;;;4200118;28;20047;-86
2022/12/06 06:24:03;;;;;;;3.88;1.85;;;3.20;99.90;;;;;;4200723;28;20044;-86
2022/12/06 06:26:11;;;;;;;2.67;1.27;;;3.20;99.90;;;;;;4217560;28;20100;-85
2022/12/06 06:28:13;;;;;;;5.25;1.00;;;3.20;99.90;;;;;;4216545;28;20056;-86
2022/12/06 06:30:14;;;;;;;3.47;1.67;;;3.30;99.90;;;;;;4215585;28;20075;-84
2022/12/06 06:32:15;;;;;;;3.00;1.33;;;3.30;99.90;;;;;;4215494;28;20043;-85
2022/12/06 06:34:15;;;;;;;4.72;1.00;;;3.30;99.90;;;;;;4196388;28;20052;-87
2022/12/06 06:36:17;;;;;;;4.03;1.42;;;3.30;99.90;;;;;;4197202;28;20045;-85
2022/12/06 06:38:18;;;;;;;5.82;1.20;;;3.40;99.90;;;;;;4215915;28;20048;-85
2022/12/06 06:40:19;;;;;;;1.83;0.90;;;3.30;99.90;;;;;;4197198;28;20160;-85
2022/12/06 06:42:19;;;;;;;3.00;1.08;;;3.30;99.90;;;;;;4214953;28;20130;-85
2022/12/06 06:44:20;;;;;;;4.18;1.40;;;3.80;99.90;;;;;;4215109;28;20169;-84
2022/12/06 06:46:22;;;;;;;2.20;1.25;;;3.30;99.90;;;;;;4215477;28;20492;-85
2022/12/06 06:48:25;;;;;;;5.38;2.17;;;3.60;99.90;;;;;;4215384;28;20105;-83
2022/12/06 06:50:27;;;;;;;4.45;1.90;;;3.80;99.90;;;;;;4213762;28;20117;-85
2022/12/06 06:52:27;;;;;;;3.28;1.90;;;3.20;99.90;;;;;;4197486;28;20473;-84
2022/12/06 06:54:28;;;;;;;3.92;2.13;;;3.90;99.90;;;;;;4215071;28;20044;-85
2022/12/06 06:56:29;;;;;;;3.88;2.30;;;3.40;99.90;;;;;;4215425;28;20484;-85
2022/12/06 06:58:32;;;;;;;3.13;1.60;;;3.00;99.90;;;;;;4214396;28;20506;-84
2022/12/06 07:00:35;;;;;;;6.05;1.80;;;3.00;99.90;;;;;;4215560;28;20055;-84
2022/12/06 07:02:38;;;;;;;5.90;2.17;;;3.00;99.90;;;;;;4226889;28;20048;-84
2022/12/06 07:04:50;;;;;;;9.10;2.38;;;3.00;99.90;;;;;;4197893;28;20040;-85
2022/12/06 07:06:51;;;;;;;4.53;1.90;;;2.90;99.90;;;;;;4213930;28;20055;-87
2022/12/06 07:08:53;;;;;;;4.78;1.52;;;2.40;99.90;;;;;;4214289;28;20490;-86
2022/12/06 07:10:54;;;;;;;6.68;1.63;;;2.80;99.90;;;;;;4196288;28;20150;-84
2022/12/06 07:12:54;;;;;;;3.25;1.60;;;2.80;99.90;;;;;;4214036;28;20055;-85
2022/12/06 07:14:55;;;;;;;4.28;1.63;;;2.70;99.90;;;;;;4214146;28;20062;-85
2022/12/06 07:16:56;;;;;;;4.57;1.50;;;2.80;99.90;;;;;;4197730;28;20509;-85
2022/12/06 07:18:57;;;;;;;4.07;1.52;;;2.70;99.90;;;;;;4215955;28;20500;-85
2022/12/06 07:21:04;;;;;;;6.70;1.45;;;2.70;99.90;;;;;;4197869;28;20040;-84
2022/12/06 07:23:05;;;;;;;6.65;1.40;;;2.70;99.90;;;;;;4213161;28;20052;-84
2022/12/06 07:25:06;;;;;;;2.10;1.10;;;3.20;99.90;;;;;;4197235;28;20055;-86
2022/12/06 07:27:08;;;;;;;3.03;1.20;;;2.60;99.90;;;;;;4215259;28;20123;-84
2022/12/06 07:29:09;;;;;;;3.35;1.00;;;2.60;99.90;;;;;;4197170;28;20057;-85
2022/12/06 07:31:20;;;;;;;3.72;2.08;;;2.70;99.90;;;;;;4214231;28;20532;-84
2022/12/06 07:33:21;;;;;;;3.97;1.77;;;2.60;99.90;;;;;;4215440;28;20155;-85
2022/12/06 07:35:22;;;;;;;4.50;1.70;;;2.60;99.90;;;;;;4215678;28;20570;-85
2022/12/06 07:37:23;;;;;;;6.18;1.90;;;2.90;99.90;;;;;;4198191;28;20044;-85
2022/12/06 07:39:25;;;;;;;8.27;1.73;;;2.60;99.90;;;;;;4216055;28;20136;-84
2022/12/06 07:46:10;;;;;;;3.22;1.65;;;3.10;99.90;;;;;;4218291;28;20044;-86
2022/12/06 07:48:12;;;;;;;3.28;1.65;;;3.50;99.90;;;;;;4203586;28;20048;-85
2022/12/06 07:50:16;;;;;;;7.50;2.10;;;3.30;99.90;;;;;;4202416;28;20050;-85
2022/12/06 07:52:19;;;;;;;8.00;2.35;;;2.70;99.90;;;;;;4218177;28;20408;-84
2022/12/06 07:54:20;;;;;;;2.90;1.75;;;2.60;99.90;;;;;;4216914;28;20044;-84
2022/12/06 07:56:21;;;;;;;5.22;2.45;;;2.70;99.90;;;;;;4217317;28;20133;-84
2022/12/06 07:58:23;;;;;;;8.23;2.65;;;2.90;99.90;;;;;;4216931;28;20080;-85
2022/12/06 08:00:25;;;;;;;7.10;2.65;;;3.40;99.90;;;;;;4217180;28;20056;-85
2022/12/06 08:02:27;;;;;;;4.55;1.83;;;2.80;99.90;;;;;;4218828;28;20079;-85
2022/12/06 08:04:28;;;;;;;6.78;2.83;;;2.80;99.90;;;;;;4200771;28;20053;-84
2022/12/06 08:06:30;;;;;;;3.80;1.75;;;3.30;99.90;;;;;;4217318;28;20044;-85
2022/12/06 08:08:31;;;;;;;4.95;1.50;;;2.90;99.90;;;;;;4218660;28;20079;-85
2022/12/06 08:10:33;;;;;;;3.70;1.85;;;3.00;99.90;;;;;;4219379;28;20524;-85
2022/12/06 08:12:33;;;;;;;2.70;1.60;;;3.30;99.90;;;;;;4200644;28;20175;-85
2022/12/06 08:14:35;;;;;;;6.00;2.28;;;3.10;99.90;;;;;;4217553;28;20048;-85
2022/12/06 08:16:39;;;;;;;5.88;1.55;;;3.10;99.90;;;;;;4201007;28;20129;-84
2022/12/06 08:18:41;;;;;;;5.07;1.90;;;3.30;99.90;;;;;;4200342;28;20588;-84
2022/12/06 08:20:42;;;;;;;6.38;1.40;;;3.20;99.90;;;;;;4218954;28;20052;-85
2022/12/06 08:22:44;;;;;;;6.95;1.85;;;3.30;99.90;;;;;;4200578;28;20487;-85
2022/12/06 08:24:47;;;;;;;3.42;1.88;;;3.40;99.90;;;;;;4201782;28;20528;-85
2022/12/06 08:26:51;;;;;;;2.90;1.70;;;3.50;99.90;;;;;;4200630;28;20059;-85
2022/12/06 08:28:52;;;;;;;4.57;1.55;;;3.40;99.90;;;;;;4217996;28;20052;-86
2022/12/06 08:30:56;;;;;;;3.20;1.40;;;3.80;99.90;;;;;;4217914;28;20140;-85
2022/12/06 08:32:57;;;;;;;3.83;1.60;;;3.50;99.90;;;;;;4200396;28;20044;-84
2022/12/06 08:34:57;;;;;;;3.50;1.77;;;3.60;99.90;;;;;;4216749;28;20127;-85
2022/12/06 08:36:58;;;;;;;2.72;1.40;;;3.60;99.90;;;;;;4215689;28;20048;-85
2022/12/06 08:39:00;;;;;;;2.88;1.42;;;3.60;99.90;;;;;;4216570;28;20052;-85
2022/12/06 08:41:01;;;;;;;3.67;1.58;;;3.60;99.90;;;;;;4216174;28;20070;-85
2022/12/06 08:43:01;;;;;;;7.15;2.05;;;3.50;99.90;;;;;;4199245;28;20057;-85
2022/12/06 08:45:03;;;;;;;6.53;1.50;;;3.60;99.90;;;;;;4216842;28;20052;-84
2022/12/06 08:47:04;;;;;;;3.40;2.28;;;3.60;99.90;;;;;;4216054;28;20048;-85
2022/12/06 08:49:05;;;;;;;3.72;1.45;;;3.60;99.90;;;;;;4217601;28;20447;-85
2022/12/06 08:51:06;;;;;;;4.00;1.67;;;3.60;99.90;;;;;;4199412;28;20086;-85
2022/12/06 08:53:06;;;;;;;3.75;1.40;;;3.60;99.90;;;;;;4218831;28;20120;-85
2022/12/06 08:55:07;;;;;;;3.95;1.40;;;3.60;99.90;;;;;;4200863;28;20055;-85
2022/12/06 08:57:08;;;;;;;6.05;1.63;;;3.60;99.90;;;;;;4218668;28;20101;-86
2022/12/06 08:59:09;;;;;;;3.33;1.80;;;3.60;99.90;;;;;;4217416;28;20589;-85
2022/12/06 09:01:31;;;;;;;5.70;1.90;;;3.60;99.90;;;;;;4201778;28;20526;-85
2022/12/06 09:03:33;;;;;;;4.10;1.83;;;3.90;99.90;;;;;;4217843;28;20097;-85
2022/12/06 09:05:34;;;;;;;4.38;1.48;;;4.50;99.90;;;;;;4219718;28;20136;-85
2022/12/06 09:07:35;;;;;;;2.58;1.60;;;5.80;99.90;;;;;;4219918;28;20044;-86
2022/12/06 09:09:37;;;;;;;3.45;1.30;;;7.00;99.90;;;;;;4227281;28;20119;-85
2022/12/06 09:11:39;;;;;;;3.40;1.30;;;7.50;99.90;;;;;;4231488;28;20040;-85
2022/12/06 09:13:40;;;;;;;3.10;1.70;;;7.30;99.90;;;;;;4235409;28;20028;-85
2022/12/06 09:15:42;;;;;;;2.95;1.75;;;6.80;99.90;;;;;;4234040;28;20028;-85
2022/12/06 09:17:43;;;;;;;4.03;1.15;;;6.30;99.90;;;;;;4231534;28;20059;-85
2022/12/06 09:19:44;;;;;;;5.10;1.52;;;5.90;99.90;;;;;;4230723;28;20062;-85
2022/12/06 09:21:46;;;;;;;4.43;2.03;;;5.70;99.90;;;;;;4223961;28;20040;-85
2022/12/06 09:23:47;;;;;;;7.13;1.13;;;6.80;99.90;;;;;;4216632;28;20075;-85
2022/12/06 09:25:47;;;;;;;2.70;1.00;;;7.70;99.90;;;;;;4218159;28;20089;-85
2022/12/06 09:27:49;;;;;;;8.05;2.03;;;8.60;99.90;;;;;;4216277;28;20051;-86
2022/12/06 09:29:51;;;;;;;2.05;1.30;;;9.50;99.90;;;;;;4217803;28;20496;-85
2022/12/06 09:31:52;;;;;;;1.23;0.85;;;10.30;99.90;;;;;;4214813;28;20055;-86
2022/12/06 09:33:54;;;;;;;6.97;1.15;;;10.80;99.90;;;;;;4214199;28;20581;-84
2022/12/06 09:35:56;;;;;;;1.90;1.00;;;11.00;99.90;;;;;;4215485;28;20420;-85
2022/12/06 09:37:59;;;;;;;2.03;1.13;;;11.10;99.90;;;;;;4215773;28;20040;-85
2022/12/06 09:40:10;;;;;;;2.85;0.90;;;11.30;99.90;;;;;;4215748;28;20389;-85
2022/12/06 09:42:30;;;;;;;2.30;1.00;;;11.20;99.90;;;;;;4215673;28;20483;-85
2022/12/06 09:44:51;;;;;;;2.40;1.30;;;11.20;99.90;;;;;;4197587;28;20044;-85
2022/12/06 09:47:10;;;;;;;2.58;1.25;;;10.70;99.90;;;;;;4214503;28;20401;-86
2022/12/06 09:49:28;;;;;;;1.67;0.98;;;9.60;99.90;;;;;;4215523;28;20044;-85
2022/12/06 09:51:43;;;;;;;1.43;0.80;;;8.70;99.90;;;;;;4214258;28;20439;-85
2022/12/06 09:54:18;;;;;;;1.00;0.85;;;8.20;99.90;;;;;;4215349;28;20149;-85
2022/12/06 09:56:59;;;;;;;5.10;1.33;;;7.90;99.90;;;;;;4214774;28;20109;-84
2022/12/06 09:59:32;;;;;;;6.15;1.45;;;7.90;99.90;;;;;;4213108;28;20447;-85
2022/12/06 10:01:57;;;;;;;5.68;1.83;;;7.80;99.90;;;;;;4214148;28;20050;-85
2022/12/06 10:04:24;;;;;;;1.92;1.30;;;8.10;99.90;;;;;;4198763;28;20037;-85
2022/12/06 10:06:35;;;;;;;2.50;1.45;;;8.00;99.90;;;;;;4206084;28;20089;-85
2022/12/06 10:09:03;;;;;;;3.67;1.30;;;7.90;99.90;;;;;;4215558;28;20101;-85
2022/12/06 10:11:03;;;;;;;4.00;1.80;;;7.80;99.90;;;;;;4213635;28;20132;-85
2022/12/06 10:13:10;;;;;;;2.17;1.20;;;7.70;99.90;;;;;;4196992;28;20075;-85
2022/12/06 10:15:24;;;;;;;3.92;1.40;;;7.90;99.90;;;;;;4213062;28;20058;-86
2022/12/06 10:17:41;;;;;;;6.00;1.35;;;8.10;99.90;;;;;;4213514;28;20048;-85
2022/12/06 10:20:28;;;;;;;3.30;0.98;;;8.40;99.90;;;;;;4215286;28;20086;-86
2022/12/06 10:22:56;;;;;;;2.40;1.13;;;8.60;99.90;;;;;;4215202;28;20083;-86
2022/12/06 10:25:09;;;;;;;2.17;1.08;;;8.70;99.90;;;;;;4216217;28;20044;-85
2022/12/06 10:27:21;;;;;;;3.33;1.48;;;9.00;99.90;;;;;;4215415;28;20050;-85
2022/12/06 10:29:30;;;;;;;2.45;0.90;;;9.30;99.90;;;;;;4216494;28;20074;-84
2022/12/06 10:31:49;;;;;;;4.00;0.95;;;9.30;99.90;;;;;;4227089;28;20052;-85
2022/12/06 10:34:21;;;;;;;3.45;1.20;;;9.30;99.90;;;;;;4225985;28;20097;-85
2022/12/06 10:36:51;;;;;;;3.17;0.77;;;9.00;99.90;;;;;;4226129;28;20081;-85
2022/12/06 10:39:03;;;;;;;3.22;1.40;;;9.00;99.90;;;;;;4196033;28;20527;-86
2022/12/06 10:41:45;;;;;;;2.70;1.25;;;9.10;99.90;;;;;;4214830;28;20040;-86
2022/12/06 10:44:10;;;;;;;2.92;1.08;;;9.20;99.90;;;;;;4196979;28;20517;-86
2022/12/06 10:49:00;;;;;;;3.53;0.90;;;8.70;99.90;;;;;;4214810;28;20083;-85
2022/12/06 10:51:13;;;;;;;5.43;1.10;;;8.50;99.90;;;;;;4215223;28;20048;-86
2022/12/06 10:53:16;;;;;;;3.55;1.00;;;8.30;99.90;;;;;;4197152;28;20048;-86
2022/12/06 10:55:26;;;;;;;4.57;1.10;;;8.20;99.90;;;;;;4214671;28;20162;-86
2022/12/06 10:57:30;;;;;;;2.40;0.75;;;8.20;99.90;;;;;;4215484;28;20041;-86
2022/12/06 10:59:38;;;;;;;0.73;0.63;;;7.90;99.90;;;;;;4198534;28;20052;-86
2022/12/06 11:01:42;;;;;;;3.03;1.35;;;7.70;99.90;;;;;;4214149;28;20459;-86
2022/12/06 11:04:06;;;;;;;5.65;0.90;;;7.70;99.90;;;;;;4214846;28;20532;-86
2022/12/06 11:06:36;;;;;;;2.28;0.88;;;7.60;99.90;;;;;;4214311;28;20055;-85
2022/12/06 11:08:50;;;;;;;2.67;1.00;;;7.60;99.90;;;;;;4212234;28;20055;-84
2022/12/06 11:10:54;;;;;;;2.13;0.90;;;7.80;99.90;;;;;;4212675;28;20055;-85
2022/12/06 11:13:12;;;;;;;2.25;1.00;;;8.10;99.90;;;;;;4212808;28;20516;-86
2022/12/06 11:15:16;;;;;;;1.83;1.00;;;8.50;99.90;;;;;;4196292;28;20052;-86
2022/12/06 11:17:30;;;;;;;2.65;1.45;;;8.90;99.90;;;;;;4195709;28;20122;-86
2022/12/06 11:19:41;;;;;;;3.03;0.70;;;9.20;99.90;;;;;;4212234;28;20047;-86
2022/12/06 11:21:52;;;;;;;5.07;1.50;;;9.30;99.90;;;;;;4213939;28;20047;-86
2022/12/06 11:24:00;;;;;;;1.67;0.85;;;9.20;99.90;;;;;;4214117;28;20082;-86
2022/12/06 11:26:24;;;;;;;2.40;0.90;;;9.20;99.90;;;;;;4213934;28;20112;-86